Skip Navigation Links
NOAA logo - Click to go to the NOAA homepage
NOAA's National Weather Service
Alaska Aviation Weather Unit
  NWS logo - Click to go to the NWS homepage
Left Navbar Graphic     22 AKDT = 06 GMT

   
NOAA is celebrating 200 years of science, service, and stewardship. Visit the NOAA 200th celebration Web site to learn more.
USA.gov is the U.S. Government's official Web portal to all Federal, state and local government Web resources and services.
Facebook
NWS on Facebook

Important Change Regarding the AAWU Web Presence

 

Over the last several months, the AAWU has been working to navigate its webpages to a nationally supported server. Security, as well as other needs, have necessitated the change.  We have been given an extension for the site changeover while we diligently work at addressing feedback received. As of July 14, 2017, aawu.arh.noaa.gov will be discontinued. The new AAWU web address is weather.gov/aawu. It is now live and will run in-parallel with the old site until it is discontinued on July 14, 2017. Please continue to send any feedback or questions regarding the new webpages to nws.ar.aawu.webauthors@noaa.gov.  Thank you for your patience during this time of transition.
AAWU Home :: Display TAF Add Bookmark
TAF PASC 260534Z 2606/2706 05012KT P6SM VCFG FEW007 SCT015
     FM260900 05008KT 1 1/2SM BR OVC007
     FM261200 03008KT 1/2SM FG OVC005
     FM261800 03006KT 1 1/2SM BR BKN007 OVC015
     FM262100 06006KT P6SM VCFG SCT007 OVC015=

METAR PASC 260053Z 04009KT 10SM SCT022 SCT060 11/07 A2997= METAR PASC 260153Z 05010KT 10SM SCT022 BKN070 09/07 A2997= METAR PASC 260253Z 06012KT 10SM BKN070 09/06 A2997= METAR PASC 260353Z 05012KT 10SM FEW070 BKN120 OVC250 08/06 A2997= METAR PASC 260453Z 06010KT 10SM FEW070 SCT120 BKN250 08/06 A2997= METAR PASC 260553Z 06008KT 10SM FEW026 BKN110 07/06 A2998=
 Alaska TAF Map

NOAA's National Weather Service
Alaska Aviation Weather Unit
6930 Sand Lake Road
Anchorage, AK 99502-1845
Disclaimer
Credits
Glossary
Privacy Policy
About Us
Career Opportunities
Contact AAWU Internet Services Site last modified: April, 17th 2012